sensor_id;sensor_type;location;lat;lon;timestamp;P1;durP1;ratioP1;P2;durP2;ratioP2
26486;SDS011;14425;56.136;40.360;2022-10-16T00:02:00;13.10;;;7.72;;
26486;SDS011;14425;56.136;40.360;2022-10-16T00:04:26;14.43;;;7.90;;
26486;SDS011;14425;56.136;40.360;2022-10-16T00:06:51;13.57;;;8.40;;
26486;SDS011;14425;56.136;40.360;2022-10-16T00:09:17;19.33;;;8.75;;
26486;SDS011;14425;56.136;40.360;2022-10-16T00:11:42;13.65;;;8.35;;
26486;SDS011;14425;56.136;40.360;2022-10-16T00:14:10;13.55;;;7.40;;
26486;SDS011;14425;56.136;40.360;2022-10-16T00:16:36;12.18;;;8.70;;
26486;SDS011;14425;56.136;40.360;2022-10-16T00:19:02;15.32;;;7.68;;
26486;SDS011;14425;56.136;40.360;2022-10-16T00:21:28;14.85;;;9.00;;
26486;SDS011;14425;56.136;40.360;2022-10-16T00:24:12;14.45;;;8.68;;
26486;SDS011;14425;56.136;40.360;2022-10-16T00:26:38;17.95;;;8.88;;
26486;SDS011;14425;56.136;40.360;2022-10-16T00:29:03;13.70;;;7.90;;
26486;SDS011;14425;56.136;40.360;2022-10-16T00:31:29;14.30;;;7.18;;
26486;SDS011;14425;56.136;40.360;2022-10-16T00:33:54;12.70;;;7.65;;
26486;SDS011;14425;56.136;40.360;2022-10-16T00:36:20;14.90;;;8.25;;
26486;SDS011;14425;56.136;40.360;2022-10-16T00:38:46;12.40;;;8.40;;
26486;SDS011;14425;56.136;40.360;2022-10-16T00:41:17;13.68;;;7.97;;
26486;SDS011;14425;56.136;40.360;2022-10-16T00:43:44;17.23;;;8.63;;
26486;SDS011;14425;56.136;40.360;2022-10-16T00:46:14;12.70;;;7.30;;
26486;SDS011;14425;56.136;40.360;2022-10-16T00:48:40;11.68;;;7.13;;
26486;SDS011;14425;56.136;40.360;2022-10-16T00:51:06;13.55;;;7.95;;
26486;SDS011;14425;56.136;40.360;2022-10-16T00:53:32;14.55;;;9.18;;
26486;SDS011;14425;56.136;40.360;2022-10-16T00:55:57;15.98;;;9.13;;
26486;SDS011;14425;56.136;40.360;2022-10-16T00:58:23;14.27;;;8.07;;
26486;SDS011;14425;56.136;40.360;2022-10-16T01:00:48;14.95;;;9.32;;
26486;SDS011;14425;56.136;40.360;2022-10-16T01:05:58;10.80;;;7.68;;
26486;SDS011;14425;56.136;40.360;2022-10-16T01:08:39;12.05;;;7.72;;
26486;SDS011;14425;56.136;40.360;2022-10-16T01:11:52;14.95;;;8.70;;
26486;SDS011;14425;56.136;40.360;2022-10-16T01:13:58;11.80;;;8.02;;
26486;SDS011;14425;56.136;40.360;2022-10-16T01:16:35;11.25;;;7.95;;
26486;SDS011;14425;56.136;40.360;2022-10-16T01:21:33;14.17;;;7.83;;
26486;SDS011;14425;56.136;40.360;2022-10-16T01:24:03;12.95;;;8.68;;
26486;SDS011;14425;56.136;40.360;2022-10-16T01:26:58;14.15;;;8.27;;
26486;SDS011;14425;56.136;40.360;2022-10-16T01:29:33;13.38;;;8.23;;
26486;SDS011;14425;56.136;40.360;2022-10-16T01:32:00;15.70;;;7.97;;
26486;SDS011;14425;56.136;40.360;2022-10-16T01:34:35;13.05;;;8.48;;
26486;SDS011;14425;56.136;40.360;2022-10-16T01:37:15;14.55;;;8.45;;
26486;SDS011;14425;56.136;40.360;2022-10-16T01:39:42;13.55;;;8.30;;
26486;SDS011;14425;56.136;40.360;2022-10-16T01:42:17;14.50;;;9.27;;
26486;SDS011;14425;56.136;40.360;2022-10-16T01:44:44;15.05;;;8.88;;
26486;SDS011;14425;56.136;40.360;2022-10-16T01:47:10;13.98;;;8.38;;
26486;SDS011;14425;56.136;40.360;2022-10-16T01:49:38;15.48;;;9.05;;
26486;SDS011;14425;56.136;40.360;2022-10-16T01:52:05;14.55;;;8.32;;
26486;SDS011;14425;56.136;40.360;2022-10-16T01:54:32;14.82;;;9.15;;
26486;SDS011;14425;56.136;40.360;2022-10-16T01:56:58;14.75;;;8.18;;
26486;SDS011;14425;56.136;40.360;2022-10-16T01:59:25;12.60;;;7.35;;
26486;SDS011;14425;56.136;40.360;2022-10-16T02:01:52;14.50;;;9.25;;
26486;SDS011;14425;56.136;40.360;2022-10-16T02:04:33;16.67;;;8.63;;
26486;SDS011;14425;56.136;40.360;2022-10-16T02:06:59;15.07;;;9.15;;
26486;SDS011;14425;56.136;40.360;2022-10-16T02:09:25;15.60;;;8.15;;
26486;SDS011;14425;56.136;40.360;2022-10-16T02:11:52;12.93;;;8.43;;
26486;SDS011;14425;56.136;40.360;2022-10-16T02:14:19;15.45;;;8.38;;
26486;SDS011;14425;56.136;40.360;2022-10-16T02:16:45;12.85;;;7.32;;
26486;SDS011;14425;56.136;40.360;2022-10-16T02:19:14;14.77;;;8.90;;
26486;SDS011;14425;56.136;40.360;2022-10-16T02:21:44;13.88;;;7.43;;
26486;SDS011;14425;56.136;40.360;2022-10-16T02:26:54;14.68;;;8.93;;
26486;SDS011;14425;56.136;40.360;2022-10-16T02:29:24;11.83;;;7.10;;
26486;SDS011;14425;56.136;40.360;2022-10-16T02:31:50;16.20;;;9.00;;
26486;SDS011;14425;56.136;40.360;2022-10-16T02:34:18;14.75;;;7.68;;
26486;SDS011;14425;56.136;40.360;2022-10-16T02:36:44;15.40;;;8.73;;
26486;SDS011;14425;56.136;40.360;2022-10-16T02:39:11;11.52;;;7.57;;
26486;SDS011;14425;56.136;40.360;2022-10-16T02:41:36;13.15;;;8.00;;
26486;SDS011;14425;56.136;40.360;2022-10-16T02:44:02;14.73;;;9.27;;
26486;SDS011;14425;56.136;40.360;2022-10-16T02:46:27;21.90;;;8.50;;
26486;SDS011;14425;56.136;40.360;2022-10-16T02:48:52;16.42;;;8.98;;
26486;SDS011;14425;56.136;40.360;2022-10-16T02:51:18;12.48;;;7.60;;
26486;SDS011;14425;56.136;40.360;2022-10-16T02:53:43;14.30;;;8.18;;
26486;SDS011;14425;56.136;40.360;2022-10-16T02:56:09;18.73;;;8.90;;
26486;SDS011;14425;56.136;40.360;2022-10-16T02:58:34;18.38;;;9.05;;
26486;SDS011;14425;56.136;40.360;2022-10-16T03:01:00;12.10;;;7.40;;
26486;SDS011;14425;56.136;40.360;2022-10-16T03:03:25;17.20;;;8.85;;
26486;SDS011;14425;56.136;40.360;2022-10-16T03:05:50;16.25;;;8.40;;
26486;SDS011;14425;56.136;40.360;2022-10-16T03:08:16;13.85;;;8.65;;
26486;SDS011;14425;56.136;40.360;2022-10-16T03:10:41;14.55;;;7.68;;
26486;SDS011;14425;56.136;40.360;2022-10-16T03:13:06;13.60;;;7.32;;
26486;SDS011;14425;56.136;40.360;2022-10-16T03:15:32;14.63;;;7.82;;
26486;SDS011;14425;56.136;40.360;2022-10-16T03:17:57;15.73;;;8.40;;
26486;SDS011;14425;56.136;40.360;2022-10-16T03:20:23;14.05;;;8.23;;
26486;SDS011;14425;56.136;40.360;2022-10-16T03:22:51;12.95;;;7.30;;
26486;SDS011;14425;56.136;40.360;2022-10-16T03:25:16;14.50;;;7.88;;
26486;SDS011;14425;56.136;40.360;2022-10-16T03:27:42;15.23;;;8.25;;
26486;SDS011;14425;56.136;40.360;2022-10-16T03:30:07;15.52;;;8.82;;
26486;SDS011;14425;56.136;40.360;2022-10-16T03:32:33;17.02;;;8.68;;
26486;SDS011;14425;56.136;40.360;2022-10-16T03:34:58;15.80;;;8.13;;
26486;SDS011;14425;56.136;40.360;2022-10-16T03:37:27;12.95;;;8.07;;
26486;SDS011;14425;56.136;40.360;2022-10-16T03:39:52;15.48;;;8.52;;
26486;SDS011;14425;56.136;40.360;2022-10-16T03:42:18;15.15;;;8.95;;
26486;SDS011;14425;56.136;40.360;2022-10-16T03:44:43;14.32;;;8.73;;
26486;SDS011;14425;56.136;40.360;2022-10-16T03:47:08;16.33;;;8.50;;
26486;SDS011;14425;56.136;40.360;2022-10-16T03:49:34;13.77;;;8.23;;
26486;SDS011;14425;56.136;40.360;2022-10-16T03:51:59;28.38;;;9.90;;
26486;SDS011;14425;56.136;40.360;2022-10-16T03:54:24;21.92;;;9.10;;
26486;SDS011;14425;56.136;40.360;2022-10-16T03:56:50;14.82;;;8.65;;
26486;SDS011;14425;56.136;40.360;2022-10-16T03:59:15;15.57;;;8.60;;
26486;SDS011;14425;56.136;40.360;2022-10-16T04:01:40;13.32;;;8.57;;
26486;SDS011;14425;56.136;40.360;2022-10-16T04:04:06;16.20;;;8.90;;
26486;SDS011;14425;56.136;40.360;2022-10-16T04:06:31;13.98;;;8.18;;
26486;SDS011;14425;56.136;40.360;2022-10-16T04:08:56;15.48;;;8.00;;
26486;SDS011;14425;56.136;40.360;2022-10-16T04:11:22;13.75;;;8.10;;
26486;SDS011;14425;56.136;40.360;2022-10-16T04:13:47;13.82;;;8.57;;
26486;SDS011;14425;56.136;40.360;2022-10-16T04:16:12;17.60;;;8.82;;
26486;SDS011;14425;56.136;40.360;2022-10-16T04:18:41;15.35;;;8.57;;
26486;SDS011;14425;56.136;40.360;2022-10-16T04:21:06;15.30;;;7.97;;
26486;SDS011;14425;56.136;40.360;2022-10-16T04:23:32;15.85;;;8.63;;
26486;SDS011;14425;56.136;40.360;2022-10-16T04:25:57;12.32;;;7.43;;
26486;SDS011;14425;56.136;40.360;2022-10-16T04:28:25;11.52;;;7.47;;
26486;SDS011;14425;56.136;40.360;2022-10-16T04:30:51;11.85;;;7.43;;
26486;SDS011;14425;56.136;40.360;2022-10-16T04:33:17;12.90;;;8.15;;
26486;SDS011;14425;56.136;40.360;2022-10-16T04:35:42;12.25;;;7.63;;
26486;SDS011;14425;56.136;40.360;2022-10-16T04:38:07;14.98;;;7.97;;
26486;SDS011;14425;56.136;40.360;2022-10-16T04:40:33;18.25;;;7.85;;
26486;SDS011;14425;56.136;40.360;2022-10-16T04:43:01;15.13;;;7.68;;
26486;SDS011;14425;56.136;40.360;2022-10-16T04:45:26;14.05;;;7.25;;
26486;SDS011;14425;56.136;40.360;2022-10-16T04:47:51;12.77;;;6.82;;
26486;SDS011;14425;56.136;40.360;2022-10-16T04:50:17;13.75;;;7.93;;
26486;SDS011;14425;56.136;40.360;2022-10-16T04:52:42;15.43;;;8.30;;
26486;SDS011;14425;56.136;40.360;2022-10-16T04:55:07;13.30;;;7.80;;
26486;SDS011;14425;56.136;40.360;2022-10-16T04:57:33;16.42;;;7.43;;
26486;SDS011;14425;56.136;40.360;2022-10-16T04:59:58;9.85;;;7.22;;
26486;SDS011;14425;56.136;40.360;2022-10-16T05:02:27;11.45;;;6.80;;
26486;SDS011;14425;56.136;40.360;2022-10-16T05:04:52;14.13;;;8.07;;
26486;SDS011;14425;56.136;40.360;2022-10-16T05:07:18;12.50;;;7.03;;
26486;SDS011;14425;56.136;40.360;2022-10-16T05:09:43;13.18;;;7.25;;
26486;SDS011;14425;56.136;40.360;2022-10-16T05:12:08;11.80;;;7.78;;
26486;SDS011;14425;56.136;40.360;2022-10-16T05:14:34;12.07;;;6.95;;
26486;SDS011;14425;56.136;40.360;2022-10-16T05:16:59;11.60;;;6.82;;
26486;SDS011;14425;56.136;40.360;2022-10-16T05:19:27;15.73;;;7.80;;
26486;SDS011;14425;56.136;40.360;2022-10-16T05:21:53;11.32;;;6.85;;
26486;SDS011;14425;56.136;40.360;2022-10-16T05:24:18;11.43;;;7.53;;
26486;SDS011;14425;56.136;40.360;2022-10-16T05:26:43;11.52;;;7.53;;
26486;SDS011;14425;56.136;40.360;2022-10-16T05:29:09;14.02;;;7.68;;
26486;SDS011;14425;56.136;40.360;2022-10-16T05:31:34;11.85;;;7.35;;
26486;SDS011;14425;56.136;40.360;2022-10-16T05:34:00;14.30;;;8.73;;
26486;SDS011;14425;56.136;40.360;2022-10-16T05:36:25;15.27;;;8.70;;
26486;SDS011;14425;56.136;40.360;2022-10-16T05:38:50;12.48;;;8.43;;
26486;SDS011;14425;56.136;40.360;2022-10-16T05:41:16;13.75;;;8.57;;
26486;SDS011;14425;56.136;40.360;2022-10-16T05:43:46;14.93;;;7.80;;
26486;SDS011;14425;56.136;40.360;2022-10-16T05:46:11;15.35;;;7.93;;
26486;SDS011;14425;56.136;40.360;2022-10-16T05:48:37;15.32;;;8.18;;
26486;SDS011;14425;56.136;40.360;2022-10-16T05:51:03;13.68;;;7.10;;
26486;SDS011;14425;56.136;40.360;2022-10-16T05:53:30;12.30;;;8.02;;
26486;SDS011;14425;56.136;40.360;2022-10-16T05:55:56;16.88;;;7.93;;
26486;SDS011;14425;56.136;40.360;2022-10-16T05:58:21;10.07;;;6.55;;
26486;SDS011;14425;56.136;40.360;2022-10-16T06:00:56;11.05;;;5.95;;
26486;SDS011;14425;56.136;40.360;2022-10-16T06:03:22;12.75;;;7.10;;
26486;SDS011;14425;56.136;40.360;2022-10-16T06:05:48;12.45;;;6.82;;
26486;SDS011;14425;56.136;40.360;2022-10-16T06:08:13;11.30;;;5.90;;
26486;SDS011;14425;56.136;40.360;2022-10-16T06:10:38;11.63;;;6.30;;
26486;SDS011;14425;56.136;40.360;2022-10-16T06:13:04;10.65;;;5.97;;
26486;SDS011;14425;56.136;40.360;2022-10-16T06:15:29;12.18;;;6.43;;
26486;SDS011;14425;56.136;40.360;2022-10-16T06:17:58;9.00;;;5.70;;
26486;SDS011;14425;56.136;40.360;2022-10-16T06:20:24;9.88;;;5.40;;
26486;SDS011;14425;56.136;40.360;2022-10-16T06:22:49;11.00;;;5.78;;
26486;SDS011;14425;56.136;40.360;2022-10-16T06:25:14;10.15;;;5.65;;
26486;SDS011;14425;56.136;40.360;2022-10-16T06:27:40;10.05;;;5.95;;
26486;SDS011;14425;56.136;40.360;2022-10-16T06:30:06;12.25;;;5.93;;
26486;SDS011;14425;56.136;40.360;2022-10-16T06:32:31;10.10;;;6.10;;
26486;SDS011;14425;56.136;40.360;2022-10-16T06:34:56;11.38;;;6.65;;
26486;SDS011;14425;56.136;40.360;2022-10-16T06:37:22;14.90;;;5.43;;
26486;SDS011;14425;56.136;40.360;2022-10-16T06:39:47;10.38;;;5.97;;
26486;SDS011;14425;56.136;40.360;2022-10-16T06:42:12;11.30;;;5.72;;
26486;SDS011;14425;56.136;40.360;2022-10-16T06:44:38;6.53;;;4.90;;
26486;SDS011;14425;56.136;40.360;2022-10-16T06:47:03;11.32;;;5.15;;
26486;SDS011;14425;56.136;40.360;2022-10-16T06:49:28;11.15;;;4.60;;
26486;SDS011;14425;56.136;40.360;2022-10-16T06:51:54;9.85;;;4.55;;
26486;SDS011;14425;56.136;40.360;2022-10-16T06:54:19;8.75;;;4.40;;
26486;SDS011;14425;56.136;40.360;2022-10-16T06:56:44;10.45;;;5.30;;
26486;SDS011;14425;56.136;40.360;2022-10-16T06:59:10;7.90;;;5.03;;
26486;SDS011;14425;56.136;40.360;2022-10-16T07:01:35;5.95;;;3.38;;
26486;SDS011;14425;56.136;40.360;2022-10-16T07:04:01;5.50;;;3.95;;
26486;SDS011;14425;56.136;40.360;2022-10-16T07:06:27;8.38;;;3.03;;
26486;SDS011;14425;56.136;40.360;2022-10-16T07:08:52;9.20;;;4.93;;
26486;SDS011;14425;56.136;40.360;2022-10-16T07:11:19;6.55;;;4.00;;
26486;SDS011;14425;56.136;40.360;2022-10-16T07:13:45;7.40;;;4.63;;
26486;SDS011;14425;56.136;40.360;2022-10-16T07:16:18;6.88;;;3.55;;
26486;SDS011;14425;56.136;40.360;2022-10-16T07:18:44;5.63;;;3.97;;
26486;SDS011;14425;56.136;40.360;2022-10-16T07:23:39;9.02;;;3.70;;
26486;SDS011;14425;56.136;40.360;2022-10-16T07:26:05;7.38;;;4.03;;
26486;SDS011;14425;56.136;40.360;2022-10-16T07:28:31;6.57;;;3.70;;
26486;SDS011;14425;56.136;40.360;2022-10-16T07:31:04;7.07;;;3.75;;
26486;SDS011;14425;56.136;40.360;2022-10-16T07:33:29;5.82;;;3.53;;
26486;SDS011;14425;56.136;40.360;2022-10-16T07:35:55;7.18;;;3.60;;
26486;SDS011;14425;56.136;40.360;2022-10-16T07:38:20;10.20;;;3.72;;
26486;SDS011;14425;56.136;40.360;2022-10-16T07:40:55;8.70;;;4.13;;
26486;SDS011;14425;56.136;40.360;2022-10-16T07:43:21;6.53;;;3.80;;
26486;SDS011;14425;56.136;40.360;2022-10-16T07:45:49;9.10;;;5.53;;
26486;SDS011;14425;56.136;40.360;2022-10-16T07:48:20;14.57;;;4.88;;
26486;SDS011;14425;56.136;40.360;2022-10-16T07:50:45;5.38;;;3.10;;
26486;SDS011;14425;56.136;40.360;2022-10-16T07:53:11;4.20;;;2.27;;
26486;SDS011;14425;56.136;40.360;2022-10-16T07:55:39;7.82;;;4.07;;
26486;SDS011;14425;56.136;40.360;2022-10-16T07:58:05;4.53;;;2.72;;
26486;SDS011;14425;56.136;40.360;2022-10-16T08:00:30;3.60;;;1.92;;
26486;SDS011;14425;56.136;40.360;2022-10-16T08:02:56;6.68;;;4.05;;
26486;SDS011;14425;56.136;40.360;2022-10-16T08:05:25;5.78;;;3.63;;
26486;SDS011;14425;56.136;40.360;2022-10-16T08:07:50;4.82;;;3.47;;
26486;SDS011;14425;56.136;40.360;2022-10-16T08:10:16;6.53;;;3.05;;
26486;SDS011;14425;56.136;40.360;2022-10-16T08:12:42;6.93;;;3.15;;
26486;SDS011;14425;56.136;40.360;2022-10-16T08:15:07;10.40;;;4.85;;
26486;SDS011;14425;56.136;40.360;2022-10-16T08:17:33;6.63;;;3.70;;
26486;SDS011;14425;56.136;40.360;2022-10-16T08:19:58;11.90;;;5.65;;
26486;SDS011;14425;56.136;40.360;2022-10-16T08:22:23;7.57;;;4.50;;
26486;SDS011;14425;56.136;40.360;2022-10-16T08:24:49;9.93;;;3.95;;
26486;SDS011;14425;56.136;40.360;2022-10-16T08:27:17;5.63;;;3.15;;
26486;SDS011;14425;56.136;40.360;2022-10-16T08:29:42;8.32;;;4.28;;
26486;SDS011;14425;56.136;40.360;2022-10-16T08:32:07;5.65;;;3.00;;
26486;SDS011;14425;56.136;40.360;2022-10-16T08:34:33;8.93;;;3.70;;
26486;SDS011;14425;56.136;40.360;2022-10-16T08:36:58;2.88;;;2.15;;
26486;SDS011;14425;56.136;40.360;2022-10-16T08:39:24;5.35;;;3.30;;
26486;SDS011;14425;56.136;40.360;2022-10-16T08:47:39;8.10;;;4.35;;
26486;SDS011;14425;56.136;40.360;2022-10-16T08:50:12;9.30;;;4.60;;
26486;SDS011;14425;56.136;40.360;2022-10-16T08:52:41;6.30;;;3.45;;
26486;SDS011;14425;56.136;40.360;2022-10-16T08:55:16;8.30;;;3.67;;
26486;SDS011;14425;56.136;40.360;2022-10-16T08:57:42;6.43;;;3.20;;
26486;SDS011;14425;56.136;40.360;2022-10-16T09:00:13;6.85;;;3.50;;
26486;SDS011;14425;56.136;40.360;2022-10-16T09:02:52;8.07;;;3.10;;
26486;SDS011;14425;56.136;40.360;2022-10-16T09:10:38;7.28;;;3.35;;
26486;SDS011;14425;56.136;40.360;2022-10-16T09:15:47;6.78;;;4.30;;
26486;SDS011;14425;56.136;40.360;2022-10-16T09:18:19;10.48;;;4.00;;
26486;SDS011;14425;56.136;40.360;2022-10-16T09:20:55;7.38;;;2.92;;
26486;SDS011;14425;56.136;40.360;2022-10-16T09:23:26;5.70;;;2.53;;
26486;SDS011;14425;56.136;40.360;2022-10-16T09:25:51;7.85;;;4.13;;
26486;SDS011;14425;56.136;40.360;2022-10-16T09:28:18;7.28;;;3.55;;
26486;SDS011;14425;56.136;40.360;2022-10-16T09:30:44;4.82;;;2.40;;
26486;SDS011;14425;56.136;40.360;2022-10-16T09:33:10;5.72;;;3.15;;
26486;SDS011;14425;56.136;40.360;2022-10-16T09:35:37;9.40;;;4.63;;
26486;SDS011;14425;56.136;40.360;2022-10-16T09:38:08;5.10;;;3.25;;
26486;SDS011;14425;56.136;40.360;2022-10-16T09:40:34;9.10;;;3.47;;
26486;SDS011;14425;56.136;40.360;2022-10-16T09:45:39;7.68;;;4.40;;
26486;SDS011;14425;56.136;40.360;2022-10-16T09:48:10;5.07;;;2.80;;
26486;SDS011;14425;56.136;40.360;2022-10-16T09:50:36;6.57;;;2.47;;
26486;SDS011;14425;56.136;40.360;2022-10-16T09:53:05;6.25;;;3.70;;
26486;SDS011;14425;56.136;40.360;2022-10-16T09:55:31;4.50;;;3.45;;
26486;SDS011;14425;56.136;40.360;2022-10-16T09:57:56;9.90;;;4.20;;
26486;SDS011;14425;56.136;40.360;2022-10-16T10:00:22;5.78;;;2.95;;
26486;SDS011;14425;56.136;40.360;2022-10-16T10:02:48;6.90;;;3.40;;
26486;SDS011;14425;56.136;40.360;2022-10-16T10:05:18;7.30;;;3.97;;
26486;SDS011;14425;56.136;40.360;2022-10-16T10:07:44;7.88;;;4.40;;
26486;SDS011;14425;56.136;40.360;2022-10-16T10:10:21;9.55;;;4.10;;
26486;SDS011;14425;56.136;40.360;2022-10-16T10:12:47;6.40;;;3.80;;
26486;SDS011;14425;56.136;40.360;2022-10-16T10:15:13;3.97;;;2.65;;
26486;SDS011;14425;56.136;40.360;2022-10-16T10:17:47;9.27;;;5.07;;
26486;SDS011;14425;56.136;40.360;2022-10-16T10:22:44;5.85;;;3.63;;
26486;SDS011;14425;56.136;40.360;2022-10-16T10:27:44;8.00;;;2.97;;
26486;SDS011;14425;56.136;40.360;2022-10-16T10:30:24;11.85;;;6.75;;
26486;SDS011;14425;56.136;40.360;2022-10-16T10:40:55;6.10;;;3.65;;
26486;SDS011;14425;56.136;40.360;2022-10-16T10:46:09;5.65;;;3.60;;
26486;SDS011;14425;56.136;40.360;2022-10-16T10:51:11;5.28;;;3.08;;
26486;SDS011;14425;56.136;40.360;2022-10-16T10:53:52;7.70;;;4.15;;
26486;SDS011;14425;56.136;40.360;2022-10-16T11:01:25;7.75;;;3.45;;
26486;SDS011;14425;56.136;40.360;2022-10-16T11:06:17;10.35;;;4.75;;
26486;SDS011;14425;56.136;40.360;2022-10-16T11:08:52;5.60;;;3.58;;
26486;SDS011;14425;56.136;40.360;2022-10-16T11:11:20;6.45;;;2.80;;
26486;SDS011;14425;56.136;40.360;2022-10-16T11:13:55;3.05;;;2.28;;
26486;SDS011;14425;56.136;40.360;2022-10-16T11:19:05;6.13;;;2.50;;
26486;SDS011;14425;56.136;40.360;2022-10-16T11:21:39;3.85;;;2.80;;
26486;SDS011;14425;56.136;40.360;2022-10-16T11:24:14;3.60;;;2.20;;
26486;SDS011;14425;56.136;40.360;2022-10-16T11:26:41;4.82;;;2.72;;
26486;SDS011;14425;56.136;40.360;2022-10-16T11:29:10;5.85;;;2.97;;
26486;SDS011;14425;56.136;40.360;2022-10-16T11:31:43;7.55;;;2.85;;
26486;SDS011;14425;56.136;40.360;2022-10-16T11:34:22;8.93;;;3.83;;
26486;SDS011;14425;56.136;40.360;2022-10-16T11:39:28;8.75;;;4.78;;
26486;SDS011;14425;56.136;40.360;2022-10-16T11:47:01;6.32;;;3.53;;
26486;SDS011;14425;56.136;40.360;2022-10-16T11:49:32;6.03;;;3.90;;
26486;SDS011;14425;56.136;40.360;2022-10-16T11:52:11;5.82;;;3.78;;
26486;SDS011;14425;56.136;40.360;2022-10-16T11:54:44;3.75;;;2.38;;
26486;SDS011;14425;56.136;40.360;2022-10-16T12:00:47;4.93;;;1.92;;
26486;SDS011;14425;56.136;40.360;2022-10-16T12:03:20;4.18;;;2.72;;
26486;SDS011;14425;56.136;40.360;2022-10-16T12:08:35;9.05;;;4.43;;
26486;SDS011;14425;56.136;40.360;2022-10-16T12:11:38;4.18;;;3.10;;
26486;SDS011;14425;56.136;40.360;2022-10-16T12:16:55;3.58;;;2.28;;
26486;SDS011;14425;56.136;40.360;2022-10-16T12:19:26;7.15;;;3.40;;
26486;SDS011;14425;56.136;40.360;2022-10-16T12:21:52;10.02;;;4.45;;
26486;SDS011;14425;56.136;40.360;2022-10-16T12:24:20;8.10;;;3.75;;
26486;SDS011;14425;56.136;40.360;2022-10-16T12:26:46;5.85;;;3.85;;
26486;SDS011;14425;56.136;40.360;2022-10-16T12:29:31;10.43;;;5.97;;
26486;SDS011;14425;56.136;40.360;2022-10-16T12:31:57;6.68;;;4.43;;
26486;SDS011;14425;56.136;40.360;2022-10-16T12:36:54;14.82;;;5.80;;
26486;SDS011;14425;56.136;40.360;2022-10-16T12:39:21;7.65;;;4.20;;
26486;SDS011;14425;56.136;40.360;2022-10-16T12:41:47;6.10;;;4.05;;
26486;SDS011;14425;56.136;40.360;2022-10-16T12:44:23;6.87;;;4.33;;
26486;SDS011;14425;56.136;40.360;2022-10-16T12:46:49;6.80;;;4.10;;
26486;SDS011;14425;56.136;40.360;2022-10-16T12:49:21;7.45;;;4.93;;
26486;SDS011;14425;56.136;40.360;2022-10-16T12:51:50;7.00;;;4.50;;
26486;SDS011;14425;56.136;40.360;2022-10-16T12:54:17;8.20;;;4.35;;
26486;SDS011;14425;56.136;40.360;2022-10-16T13:07:35;8.98;;;4.68;;
26486;SDS011;14425;56.136;40.360;2022-10-16T13:12:57;8.07;;;5.35;;
26486;SDS011;14425;56.136;40.360;2022-10-16T13:28:42;11.38;;;4.65;;
26486;SDS011;14425;56.136;40.360;2022-10-16T13:31:26;9.70;;;4.43;;
26486;SDS011;14425;56.136;40.360;2022-10-16T13:33:52;8.32;;;4.32;;
26486;SDS011;14425;56.136;40.360;2022-10-16T13:36:24;9.43;;;4.85;;
26486;SDS011;14425;56.136;40.360;2022-10-16T13:41:34;9.93;;;4.05;;
26486;SDS011;14425;56.136;40.360;2022-10-16T13:43:59;4.75;;;3.47;;
26486;SDS011;14425;56.136;40.360;2022-10-16T13:46:27;4.50;;;2.63;;
26486;SDS011;14425;56.136;40.360;2022-10-16T13:48:59;8.77;;;2.97;;
26486;SDS011;14425;56.136;40.360;2022-10-16T13:51:25;5.53;;;3.00;;
26486;SDS011;14425;56.136;40.360;2022-10-16T13:53:50;7.28;;;3.58;;
26486;SDS011;14425;56.136;40.360;2022-10-16T13:56:26;4.47;;;2.42;;
26486;SDS011;14425;56.136;40.360;2022-10-16T14:01:47;10.18;;;2.75;;
26486;SDS011;14425;56.136;40.360;2022-10-16T14:04:12;4.03;;;2.45;;
26486;SDS011;14425;56.136;40.360;2022-10-16T14:06:42;4.82;;;2.50;;
26486;SDS011;14425;56.136;40.360;2022-10-16T14:09:27;4.60;;;2.40;;
26486;SDS011;14425;56.136;40.360;2022-10-16T14:12:03;4.22;;;2.80;;
26486;SDS011;14425;56.136;40.360;2022-10-16T14:14:39;5.03;;;3.70;;
26486;SDS011;14425;56.136;40.360;2022-10-16T14:17:15;3.95;;;2.55;;
26486;SDS011;14425;56.136;40.360;2022-10-16T14:19:45;6.50;;;2.95;;
26486;SDS011;14425;56.136;40.360;2022-10-16T14:22:33;9.45;;;2.80;;
26486;SDS011;14425;56.136;40.360;2022-10-16T14:24:59;8.80;;;3.30;;
26486;SDS011;14425;56.136;40.360;2022-10-16T14:27:33;9.48;;;2.75;;
26486;SDS011;14425;56.136;40.360;2022-10-16T14:30:32;5.70;;;4.20;;
26486;SDS011;14425;56.136;40.360;2022-10-16T14:33:01;8.68;;;3.50;;
26486;SDS011;14425;56.136;40.360;2022-10-16T14:35:28;5.80;;;3.60;;
26486;SDS011;14425;56.136;40.360;2022-10-16T14:37:54;5.60;;;3.15;;
26486;SDS011;14425;56.136;40.360;2022-10-16T14:40:22;5.00;;;3.30;;
26486;SDS011;14425;56.136;40.360;2022-10-16T14:42:49;8.10;;;6.07;;
26486;SDS011;14425;56.136;40.360;2022-10-16T14:45:17;9.73;;;6.63;;
26486;SDS011;14425;56.136;40.360;2022-10-16T14:48:02;7.97;;;5.10;;
26486;SDS011;14425;56.136;40.360;2022-10-16T14:50:28;7.80;;;4.53;;
26486;SDS011;14425;56.136;40.360;2022-10-16T14:52:54;5.72;;;3.75;;
26486;SDS011;14425;56.136;40.360;2022-10-16T14:55:20;6.68;;;4.63;;
26486;SDS011;14425;56.136;40.360;2022-10-16T14:57:45;7.03;;;3.50;;
26486;SDS011;14425;56.136;40.360;2022-10-16T15:00:16;7.05;;;3.33;;
26486;SDS011;14425;56.136;40.360;2022-10-16T15:05:24;6.43;;;4.40;;
26486;SDS011;14425;56.136;40.360;2022-10-16T15:07:51;8.65;;;5.15;;
26486;SDS011;14425;56.136;40.360;2022-10-16T15:10:18;9.07;;;4.72;;
26486;SDS011;14425;56.136;40.360;2022-10-16T15:12:44;8.82;;;4.03;;
26486;SDS011;14425;56.136;40.360;2022-10-16T15:17:41;7.72;;;4.75;;
26486;SDS011;14425;56.136;40.360;2022-10-16T15:20:06;7.55;;;3.83;;
26486;SDS011;14425;56.136;40.360;2022-10-16T15:22:32;12.27;;;5.28;;
26486;SDS011;14425;56.136;40.360;2022-10-16T15:24:57;8.10;;;5.60;;
26486;SDS011;14425;56.136;40.360;2022-10-16T15:27:25;8.13;;;4.95;;
26486;SDS011;14425;56.136;40.360;2022-10-16T15:29:51;9.60;;;4.50;;
26486;SDS011;14425;56.136;40.360;2022-10-16T15:32:16;7.90;;;4.90;;
26486;SDS011;14425;56.136;40.360;2022-10-16T15:34:44;34.60;;;18.92;;
26486;SDS011;14425;56.136;40.360;2022-10-16T15:37:09;18.17;;;9.88;;
26486;SDS011;14425;56.136;40.360;2022-10-16T15:39:37;22.75;;;10.25;;
26486;SDS011;14425;56.136;40.360;2022-10-16T15:42:02;6.10;;;4.32;;
26486;SDS011;14425;56.136;40.360;2022-10-16T15:44:27;10.45;;;4.50;;
26486;SDS011;14425;56.136;40.360;2022-10-16T15:46:55;5.88;;;4.55;;
26486;SDS011;14425;56.136;40.360;2022-10-16T15:49:24;5.95;;;3.65;;
26486;SDS011;14425;56.136;40.360;2022-10-16T15:51:49;5.97;;;4.57;;
26486;SDS011;14425;56.136;40.360;2022-10-16T15:54:15;8.45;;;3.63;;
26486;SDS011;14425;56.136;40.360;2022-10-16T15:56:40;13.25;;;7.78;;
26486;SDS011;14425;56.136;40.360;2022-10-16T15:59:07;6.97;;;4.32;;
26486;SDS011;14425;56.136;40.360;2022-10-16T16:01:51;8.05;;;2.92;;
26486;SDS011;14425;56.136;40.360;2022-10-16T16:04:23;7.00;;;4.80;;
26486;SDS011;14425;56.136;40.360;2022-10-16T16:06:56;6.72;;;4.22;;
26486;SDS011;14425;56.136;40.360;2022-10-16T16:09:37;5.85;;;3.10;;
26486;SDS011;14425;56.136;40.360;2022-10-16T16:12:02;3.80;;;2.75;;
26486;SDS011;14425;56.136;40.360;2022-10-16T16:14:28;7.30;;;2.75;;
26486;SDS011;14425;56.136;40.360;2022-10-16T16:16:54;4.95;;;2.90;;
26486;SDS011;14425;56.136;40.360;2022-10-16T16:19:24;5.47;;;2.67;;
26486;SDS011;14425;56.136;40.360;2022-10-16T16:21:49;6.85;;;3.70;;
26486;SDS011;14425;56.136;40.360;2022-10-16T16:24:15;4.82;;;3.03;;
26486;SDS011;14425;56.136;40.360;2022-10-16T16:26:41;7.32;;;2.78;;